Time;durP1;ratioP1;P1;durP2;ratioP2;P2;SDS_P1;SDS_P2;PMS_P1;PMS_P2;Temp;Humidity;BMP_temperature;BMP_pressure;BME280_temperature;BME280_humidity;BME280_pressure;Samples;Min_cycle;Max_cycle;Signal;HPM_P1;HPM_P2
2021/05/25 00:02:25;;;;;;;6.40;1.35;;;;;;;9.93;90.11;100773.38;5110940;28;20465;-60
2021/05/25 00:04:53;;;;;;;6.78;1.50;;;;;;;9.92;90.13;100780.09;5111078;28;20045;-59
2021/05/25 00:07:20;;;;;;;6.28;1.60;;;;;;;9.90;90.18;100768.41;5111357;28;20043;-59
2021/05/25 00:09:47;;;;;;;5.32;1.33;;;;;;;9.87;90.25;100769.00;5110926;28;20092;-59
2021/05/25 00:12:15;;;;;;;4.75;1.40;;;;;;;9.82;90.09;100764.28;5111372;28;20396;-57
2021/05/25 00:14:43;;;;;;;3.60;1.10;;;;;;;9.81;90.17;100767.38;5111288;28;20050;-59
2021/05/25 00:17:10;;;;;;;4.20;1.50;;;;;;;9.77;90.53;100769.13;5110827;28;20043;-60
2021/05/25 00:19:38;;;;;;;6.28;1.77;;;;;;;9.74;90.53;100770.53;5111547;28;20055;-57
2021/05/25 00:22:05;;;;;;;6.82;2.00;;;;;;;9.68;90.90;100757.78;5110684;28;20097;-58
2021/05/25 00:24:33;;;;;;;4.90;1.88;;;;;;;9.67;90.88;100764.47;5113452;28;20059;-59
2021/05/25 00:27:01;;;;;;;4.78;1.50;;;;;;;9.63;90.99;100766.19;5115351;28;20097;-59
2021/05/25 00:29:29;;;;;;;5.82;1.98;;;;;;;9.64;91.02;100771.47;5114819;28;20404;-59
2021/05/25 00:31:57;;;;;;;7.35;2.00;;;;;;;9.65;91.18;100772.28;5114923;28;20768;-58
2021/05/25 00:34:24;;;;;;;8.13;1.75;;;;;;;9.64;91.15;100776.22;5115176;28;20078;-57
2021/05/25 00:36:52;;;;;;;10.57;1.80;;;;;;;9.60;91.07;100773.19;5113766;28;20051;-58
2021/05/25 00:39:19;;;;;;;7.10;1.80;;;;;;;9.49;91.05;100770.81;5114847;28;20048;-57
2021/05/25 00:41:46;;;;;;;5.00;1.60;;;;;;;9.42;91.31;100761.94;5104122;28;20039;-58
2021/05/25 00:44:14;;;;;;;5.03;1.40;;;;;;;9.39;91.44;100766.19;5114242;28;20078;-55
2021/05/25 00:46:42;;;;;;;4.35;1.70;;;;;;;9.39;91.39;100768.13;5114914;28;20515;-59
2021/05/25 00:49:09;;;;;;;5.03;1.50;;;;;;;9.39;91.55;100768.13;5114737;28;20086;-54
2021/05/25 00:51:38;;;;;;;4.13;1.40;;;;;;;9.39;91.52;100768.13;5114295;28;20163;-57
2021/05/25 00:54:06;;;;;;;5.57;2.13;;;;;;;9.40;91.12;100769.75;5114661;28;20485;-58
2021/05/25 00:56:33;;;;;;;3.70;1.25;;;;;;;9.42;91.59;100759.16;5114537;28;20048;-55
2021/05/25 00:59:02;;;;;;;4.93;1.60;;;;;;;9.44;91.48;100756.91;5113137;28;20591;-56
2021/05/25 01:01:29;;;;;;;4.78;1.58;;;;;;;9.44;91.45;100762.50;5114613;28;20462;-57
2021/05/25 01:03:58;;;;;;;4.38;1.42;;;;;;;9.45;91.56;100778.06;5114600;28;20936;-58
2021/05/25 01:06:26;;;;;;;4.13;1.00;;;;;;;9.46;91.58;100786.16;5114055;28;20053;-53
2021/05/25 01:08:54;;;;;;;4.80;1.27;;;;;;;9.47;91.65;100784.19;5114516;28;20043;-55
2021/05/25 01:11:21;;;;;;;4.50;0.82;;;;;;;9.22;89.94;100800.00;5113651;28;20051;-59
2021/05/25 01:13:51;;;;;;;6.50;1.15;;;;;;;9.05;89.76;100798.75;5113124;28;20458;-55
2021/05/25 01:16:21;;;;;;;7.72;1.15;;;;;;;8.92;90.46;100794.69;5114238;28;20175;-50
2021/05/25 01:18:49;;;;;;;5.68;1.00;;;;;;;8.87;90.62;100791.94;5112851;28;20043;-54
2021/05/25 01:21:17;;;;;;;5.65;0.90;;;;;;;8.87;90.97;100794.72;5114443;28;20444;-51
2021/05/25 01:23:46;;;;;;;3.53;1.00;;;;;;;8.88;91.33;100794.44;5114093;28;20405;-50
2021/05/25 01:26:15;;;;;;;5.68;1.10;;;;;;;8.92;91.81;100789.13;5113491;28;20048;-53
2021/05/25 01:28:44;;;;;;;5.70;0.90;;;;;;;8.93;91.78;100780.50;5114159;28;20055;-54
2021/05/25 01:31:12;;;;;;;5.57;0.95;;;;;;;8.92;91.37;100791.91;5113940;28;20050;-52
2021/05/25 01:33:40;;;;;;;4.63;0.80;;;;;;;8.88;91.37;100788.88;5113321;28;20043;-51
2021/05/25 01:36:08;;;;;;;5.25;0.90;;;;;;;8.87;91.35;100787.22;5112738;28;20197;-50
2021/05/25 01:38:37;;;;;;;4.28;0.73;;;;;;;8.87;91.51;100780.81;5113877;27;20071;-53
2021/05/25 01:41:07;;;;;;;5.20;0.70;;;;;;;8.88;91.56;100793.63;5113250;28;20060;-52
2021/05/25 01:43:34;;;;;;;3.13;0.90;;;;;;;8.89;91.53;100793.31;5114124;28;20089;-56
2021/05/25 01:46:02;;;;;;;4.50;0.95;;;;;;;8.89;91.58;100790.53;5113594;28;20105;-53
2021/05/25 01:48:33;;;;;;;2.60;0.80;;;;;;;8.89;91.79;100787.75;5110031;28;20143;-54
2021/05/25 01:51:01;;;;;;;3.33;1.05;;;;;;;8.91;91.72;100784.69;5113916;28;20047;-52
2021/05/25 01:53:30;;;;;;;3.40;0.85;;;;;;;8.89;91.43;100787.75;5113040;28;20443;-56
2021/05/25 01:55:59;;;;;;;4.95;0.90;;;;;;;8.87;91.63;100778.88;5113595;28;20096;-55
2021/05/25 01:58:29;;;;;;;3.80;1.45;;;;;;;8.85;91.44;100789.44;5113526;28;20047;-56
2021/05/25 02:00:58;;;;;;;2.38;0.82;;;;;;;8.88;91.66;100788.88;5113069;28;20092;-54
2021/05/25 02:03:26;;;;;;;3.90;0.90;;;;;;;8.93;91.83;100790.78;5113168;28;20076;-53
2021/05/25 02:05:54;;;;;;;5.30;1.00;;;;;;;8.94;91.75;100792.47;5113259;28;20050;-56
2021/05/25 02:08:22;;;;;;;3.25;0.73;;;;;;;8.94;91.79;100789.69;5112779;28;20047;-54
2021/05/25 02:10:51;;;;;;;4.63;0.82;;;;;;;8.94;91.67;100798.03;5113319;28;20043;-52
2021/05/25 02:13:20;;;;;;;5.97;0.95;;;;;;;8.91;91.40;100787.47;5112959;28;20054;-56
2021/05/25 02:15:50;;;;;;;2.10;0.70;;;;;;;8.86;91.32;100795.84;5112698;28;20044;-54
2021/05/25 02:18:19;;;;;;;3.85;0.88;;;;;;;8.83;91.58;100796.44;5104226;28;20043;-54
2021/05/25 02:20:49;;;;;;;5.85;1.35;;;;;;;8.81;91.62;100796.72;5113035;28;20055;-52
2021/05/25 02:23:17;;;;;;;2.92;0.90;;;;;;;8.80;91.64;100797.00;5112429;28;20051;-55
2021/05/25 02:25:45;;;;;;;2.90;1.00;;;;;;;8.80;91.81;100795.03;5113033;28;20055;-55
2021/05/25 02:28:13;;;;;;;5.70;1.40;;;;;;;8.81;91.78;100796.72;5112857;28;20051;-55
2021/05/25 02:30:41;;;;;;;4.65;1.13;;;;;;;8.81;91.68;100793.09;5112365;28;20044;-58
2021/05/25 02:33:12;;;;;;;5.15;1.10;;;;;;;8.83;91.71;100790.84;5112863;28;20067;-56
2021/05/25 02:35:41;;;;;;;4.93;1.08;;;;;;;8.81;91.89;100793.94;5112414;28;20115;-57
2021/05/25 02:38:11;;;;;;;3.05;0.95;;;;;;;8.83;91.67;100796.44;5112574;28;20105;-57
2021/05/25 02:40:39;;;;;;;2.72;1.15;;;;;;;8.83;91.84;100796.44;5112765;28;20102;-58
2021/05/25 02:43:07;;;;;;;4.40;1.02;;;;;;;8.86;91.75;100793.91;5111735;28;20047;-60
2021/05/25 02:45:34;;;;;;;4.07;1.27;;;;;;;8.89;91.88;100798.88;5112934;28;20047;-56
2021/05/25 02:48:02;;;;;;;3.40;1.05;;;;;;;8.88;91.54;100799.19;5112199;28;20052;-58
2021/05/25 02:50:31;;;;;;;3.67;0.90;;;;;;;8.88;91.69;100801.97;5112038;28;20036;-58
2021/05/25 02:52:59;;;;;;;3.80;1.02;;;;;;;8.88;91.71;100799.19;5111025;28;20083;-58
2021/05/25 02:55:28;;;;;;;4.45;1.10;;;;;;;8.91;92.08;100801.38;5112108;28;20071;-58
2021/05/25 02:57:56;;;;;;;2.03;1.00;;;;;;;8.94;92.09;100803.59;5111638;28;20459;-58
2021/05/25 03:00:25;;;;;;;4.50;1.17;;;;;;;8.97;91.98;100805.81;5111152;28;20047;-59
2021/05/25 03:02:53;;;;;;;2.78;0.90;;;;;;;8.97;92.15;100803.03;5112207;28;20504;-59
2021/05/25 03:05:23;;;;;;;4.03;1.00;;;;;;;8.97;92.04;100808.59;5111348;28;20050;-59
2021/05/25 03:07:52;;;;;;;4.07;1.20;;;;;;;8.98;92.17;100810.25;5112193;28;20492;-58
2021/05/25 03:10:21;;;;;;;3.40;1.10;;;;;;;8.97;92.27;100817.78;5111759;28;20050;-58
2021/05/25 03:12:48;;;;;;;5.10;1.35;;;;;;;8.98;92.42;100813.03;5111675;28;20043;-57
2021/05/25 03:15:19;;;;;;;3.55;1.00;;;;;;;8.99;92.19;100817.47;5111841;28;20751;-57
2021/05/25 03:17:46;;;;;;;5.13;1.30;;;;;;;8.99;92.33;100812.72;5111544;28;20104;-58
2021/05/25 03:20:15;;;;;;;3.95;1.10;;;;;;;9.01;92.26;100808.81;5111808;28;20048;-58
2021/05/25 03:22:43;;;;;;;4.32;1.23;;;;;;;9.03;92.29;100818.53;5111744;28;20047;-57
2021/05/25 03:25:14;;;;;;;6.72;1.20;;;;;;;9.05;92.44;100813.50;5111212;28;20381;-58
2021/05/25 03:27:42;;;;;;;2.25;0.77;;;;;;;9.06;92.36;100812.41;5111697;28;20097;-56
2021/05/25 03:30:13;;;;;;;4.07;1.08;;;;;;;9.08;92.69;100815.72;5111502;28;20040;-54
2021/05/25 03:32:41;;;;;;;2.67;1.05;;;;;;;9.10;92.66;100819.06;5111016;28;20047;-56
2021/05/25 03:35:10;;;;;;;4.43;1.30;;;;;;;9.12;92.79;100821.53;5110691;28;20039;-56
2021/05/25 03:37:38;;;;;;;3.85;1.35;;;;;;;9.13;92.78;100823.22;5099037;28;20234;-53
2021/05/25 03:40:07;;;;;;;2.78;1.15;;;;;;;9.13;92.70;100820.44;5110829;28;20043;-57
2021/05/25 03:42:36;;;;;;;3.10;1.20;;;;;;;9.13;92.79;100824.03;5111089;28;20453;-58
2021/05/25 03:45:05;;;;;;;5.28;1.60;;;;;;;9.14;92.93;100825.72;5110475;28;20142;-57
2021/05/25 03:47:33;;;;;;;5.30;1.20;;;;;;;9.15;92.86;100826.53;5109880;28;20059;-56
2021/05/25 03:50:07;;;;;;;5.22;1.60;;;;;;;9.15;92.89;100830.16;5110157;28;20040;-58
2021/05/25 03:52:36;;;;;;;4.15;1.40;;;;;;;9.17;92.88;100829.88;5110650;28;20043;-57
2021/05/25 03:55:06;;;;;;;3.28;1.00;;;;;;;9.16;93.17;100834.59;5111043;28;20067;-56
2021/05/25 04:00:20;;;;;;;3.22;1.40;;;;;;;9.16;93.29;100831.81;5110274;28;20586;-57
2021/05/25 04:02:48;;;;;;;4.85;1.35;;;;;;;9.18;93.51;100840.72;5111410;28;20100;-58
2021/05/25 04:05:15;;;;;;;4.38;1.60;;;;;;;9.20;93.25;100840.41;5111464;28;20108;-56
2021/05/25 04:07:42;;;;;;;3.50;1.52;;;;;;;9.22;93.47;100841.78;5110698;28;20484;-54
2021/05/25 04:10:11;;;;;;;5.13;1.80;;;;;;;9.23;93.33;100839.81;5111391;28;20615;-57
2021/05/25 04:12:39;;;;;;;3.63;1.20;;;;;;;9.23;93.36;100837.03;5111241;28;20073;-57
2021/05/25 04:15:08;;;;;;;4.47;1.35;;;;;;;9.24;93.35;100835.91;5110418;28;20561;-57
2021/05/25 04:17:36;;;;;;;2.88;0.98;;;;;;;9.22;93.41;100841.78;5111250;28;20071;-57
2021/05/25 04:20:04;;;;;;;4.10;1.40;;;;;;;9.21;93.54;100840.09;5111412;28;20066;-57
2021/05/25 04:22:31;;;;;;;4.47;1.52;;;;;;;9.20;93.63;100840.41;5110771;28;20127;-57
2021/05/25 04:24:59;;;;;;;3.10;1.40;;;;;;;9.22;93.68;100852.91;5111108;28;20040;-57
2021/05/25 04:27:27;;;;;;;4.47;1.17;;;;;;;9.24;93.62;100849.84;5111470;28;20071;-58
2021/05/25 04:29:55;;;;;;;4.03;1.20;;;;;;;9.24;93.60;100844.25;5110574;28;20055;-58
2021/05/25 04:32:22;;;;;;;7.35;1.50;;;;;;;9.22;93.64;100852.06;5111039;28;20461;-56
2021/05/25 04:34:50;;;;;;;5.40;1.50;;;;;;;9.21;93.50;100854.03;5111176;28;20047;-57
2021/05/25 04:37:17;;;;;;;3.85;1.30;;;;;;;9.21;93.86;100855.97;5109936;28;20123;-56
2021/05/25 04:39:44;;;;;;;3.08;1.40;;;;;;;9.20;93.74;100855.16;5111230;28;20086;-57
2021/05/25 04:42:12;;;;;;;6.00;1.30;;;;;;;9.21;93.79;100856.81;5110085;28;20074;-53
2021/05/25 04:44:39;;;;;;;6.38;1.42;;;;;;;9.19;93.66;100861.03;5111119;28;20097;-56
2021/05/25 04:47:08;;;;;;;5.55;1.33;;;;;;;9.18;93.83;100863.00;5110913;28;20082;-54
2021/05/25 04:49:38;;;;;;;2.85;0.88;;;;;;;9.18;93.96;100865.78;5106503;28;20140;-55
2021/05/25 04:52:06;;;;;;;4.45;1.20;;;;;;;9.18;94.17;100871.34;5110887;28;20044;-55
2021/05/25 04:54:34;;;;;;;4.20;1.20;;;;;;;9.18;94.02;100864.94;5110673;28;20092;-54
2021/05/25 04:57:01;;;;;;;4.53;0.90;;;;;;;9.16;93.93;100879.16;5102861;28;20062;-50
2021/05/25 04:59:29;;;;;;;5.82;1.10;;;;;;;9.14;94.13;100878.59;5110735;28;20051;-54
2021/05/25 05:01:56;;;;;;;5.50;1.02;;;;;;;9.13;94.12;100878.88;5110852;28;20051;-53
2021/05/25 05:04:24;;;;;;;4.43;1.30;;;;;;;9.12;94.20;100869.69;5109896;28;20404;-54
2021/05/25 05:06:52;;;;;;;4.30;1.15;;;;;;;9.13;94.11;100868.59;5110313;28;20100;-55
2021/05/25 05:09:22;;;;;;;5.40;1.20;;;;;;;9.13;93.98;100873.31;5109466;28;20055;-54
2021/05/25 05:11:49;;;;;;;3.65;1.17;;;;;;;9.12;94.11;100880.84;5112626;28;20047;-55
2021/05/25 05:14:17;;;;;;;4.05;1.10;;;;;;;9.13;94.52;100888.06;5112962;28;20904;-51
2021/05/25 05:16:44;;;;;;;3.55;1.00;;;;;;;9.15;94.32;100883.03;5114393;28;20047;-52
2021/05/25 05:19:11;;;;;;;3.38;1.20;;;;;;;9.19;94.23;100889.69;5113393;28;20063;-54
2021/05/25 05:21:40;;;;;;;1.83;0.80;;;;;;;9.19;94.13;100889.69;5110952;28;20048;-53
2021/05/25 05:24:08;;;;;;;5.22;1.52;;;;;;;9.19;94.23;100880.53;5113183;28;20047;-54
2021/05/25 05:26:40;;;;;;;3.63;1.20;;;;;;;9.18;94.21;100892.78;5114047;28;20071;-53
2021/05/25 05:29:08;;;;;;;3.13;1.20;;;;;;;9.20;94.26;100890.50;5113354;27;20050;-53
2021/05/25 05:31:39;;;;;;;2.38;0.88;;;;;;;9.18;94.27;100892.78;5113648;28;20415;-51
2021/05/25 05:34:07;;;;;;;5.35;1.10;;;;;;;9.21;94.30;100895.78;5113288;28;20040;-52
2021/05/25 05:36:34;;;;;;;3.95;1.45;;;;;;;9.22;94.19;100894.66;5113916;28;20147;-52
2021/05/25 05:39:04;;;;;;;4.30;1.25;;;;;;;9.27;94.39;100888.25;5112883;28;20500;-53
2021/05/25 05:41:31;;;;;;;3.88;1.27;;;;;;;9.32;94.41;100907.69;5113727;28;20073;-53
2021/05/25 05:43:59;;;;;;;3.08;1.10;;;;;;;9.35;94.44;100904.34;5113284;28;20078;-54
2021/05/25 05:46:26;;;;;;;3.25;1.08;;;;;;;9.39;94.55;100905.44;5113072;28;20138;-52
2021/05/25 05:48:54;;;;;;;3.92;1.05;;;;;;;9.45;94.43;100903.41;5113657;28;20063;-52
2021/05/25 05:51:23;;;;;;;3.00;1.20;;;;;;;9.50;94.40;100906.16;5113123;28;20069;-52
2021/05/25 05:53:53;;;;;;;3.38;1.23;;;;;;;9.48;94.13;100908.41;5112916;28;20500;-56
2021/05/25 05:56:21;;;;;;;4.45;1.30;;;;;;;9.49;93.96;100915.66;5111016;28;20560;-50
2021/05/25 05:58:49;;;;;;;4.38;1.35;;;;;;;9.48;93.96;100916.75;5112998;28;20069;-55
2021/05/25 06:01:17;;;;;;;6.05;1.27;;;;;;;9.50;93.95;100914.53;5112569;28;20056;-53
2021/05/25 06:03:45;;;;;;;5.10;1.10;;;;;;;9.53;93.81;100916.72;5104912;28;20108;-51
2021/05/25 06:06:14;;;;;;;3.72;1.02;;;;;;;9.57;93.57;100917.81;5110516;28;20416;-53
2021/05/25 06:08:42;;;;;;;5.18;1.02;;;;;;;9.63;93.74;100927.78;5112546;28;20044;-53
2021/05/25 06:11:10;;;;;;;4.60;1.52;;;;;;;9.72;93.76;100920.47;5113119;28;20601;-52
2021/05/25 06:13:38;;;;;;;4.25;1.60;;;;;;;9.79;93.49;100926.50;5112410;28;20526;-53
2021/05/25 06:16:06;;;;;;;4.13;1.42;;;;;;;9.82;93.33;100925.94;5113046;27;20488;-51
2021/05/25 06:18:35;;;;;;;5.68;1.80;;;;;;;9.87;93.37;100937.03;5112962;28;20048;-52
2021/05/25 06:21:04;;;;;;;5.45;1.80;;;;;;;9.91;93.31;100931.72;5112046;28;20048;-51
2021/05/25 06:23:34;;;;;;;3.78;1.65;;;;;;;9.96;93.31;100932.50;5112731;28;20051;-51
2021/05/25 06:26:02;;;;;;;5.28;1.75;;;;;;;10.01;93.37;100943.59;5112528;28;20049;-50
2021/05/25 06:28:32;;;;;;;5.55;1.98;;;;;;;10.05;93.28;100929.91;5112673;28;20040;-50
2021/05/25 06:31:01;;;;;;;3.35;1.60;;;;;;;10.07;93.09;100935.19;5112531;28;20043;-51
2021/05/25 06:33:28;;;;;;;4.53;1.63;;;;;;;10.08;93.04;100934.06;5101578;28;20053;-52
2021/05/25 06:35:56;;;;;;;4.55;1.80;;;;;;;10.09;92.93;100942.13;5111671;28;20077;-53
2021/05/25 06:38:23;;;;;;;5.18;1.65;;;;;;;10.09;92.79;100946.88;5112667;28;20521;-54
2021/05/25 06:40:51;;;;;;;4.45;1.98;;;;;;;10.11;92.94;100939.88;5112356;28;20055;-53
2021/05/25 06:43:19;;;;;;;4.15;2.15;;;;;;;10.18;93.00;100947.91;5111891;28;20055;-50
2021/05/25 06:45:46;;;;;;;4.13;1.67;;;;;;;10.22;92.72;100949.00;5112508;28;20102;-51
2021/05/25 06:48:14;;;;;;;4.28;1.65;;;;;;;10.24;92.58;100943.97;5111971;28;20082;-52
2021/05/25 06:50:42;;;;;;;3.03;1.30;;;;;;;10.29;92.62;100949.50;5111665;28;20093;-51
2021/05/25 06:53:10;;;;;;;4.70;2.05;;;;;;;10.35;92.48;100951.94;5111989;28;20116;-49
2021/05/25 06:55:37;;;;;;;6.47;2.10;;;;;;;10.44;92.65;100951.28;5111697;28;20047;-52
2021/05/25 06:58:05;;;;;;;4.07;1.80;;;;;;;10.48;92.26;100949.56;5111766;27;20049;-52
2021/05/25 07:00:32;;;;;;;4.65;1.30;;;;;;;10.51;92.10;100960.13;5112162;28;20036;-51
2021/05/25 07:03:00;;;;;;;6.35;1.30;;;;;;;10.53;91.90;100958.72;5111420;28;20069;-54
2021/05/25 07:05:28;;;;;;;4.65;1.33;;;;;;;10.60;91.94;100959.16;5111867;28;20096;-52
2021/05/25 07:07:56;;;;;;;3.10;1.38;;;;;;;10.67;91.93;100958.81;5103224;28;20052;-51
2021/05/25 07:10:23;;;;;;;6.38;2.00;;;;;;;10.68;91.31;100957.69;5111458;28;20177;-50
2021/05/25 07:12:51;;;;;;;5.65;1.55;;;;;;;10.62;90.95;100950.50;5110915;28;20042;-53
2021/05/25 07:15:19;;;;;;;5.90;2.13;;;;;;;10.64;91.16;100954.66;5108464;28;20054;-52
2021/05/25 07:17:46;;;;;;;6.85;1.90;;;;;;;10.69;91.42;100962.97;5109384;28;20067;-53
2021/05/25 07:20:14;;;;;;;5.57;2.20;;;;;;;10.73;91.47;100962.38;5109998;28;20483;-55
2021/05/25 07:22:43;;;;;;;6.45;2.33;;;;;;;10.80;91.58;100968.41;5109812;28;20039;-53
2021/05/25 07:25:10;;;;;;;4.63;1.80;;;;;;;10.89;91.65;100953.53;5109719;28;20048;-52
2021/05/25 07:27:38;;;;;;;6.50;1.90;;;;;;;10.97;91.55;100969.63;5110387;28;20062;-55
2021/05/25 07:30:07;;;;;;;5.75;1.67;;;;;;;11.00;91.32;100970.94;5111889;28;20130;-51
2021/05/25 07:32:35;;;;;;;5.90;1.88;;;;;;;11.03;91.12;100964.78;5110754;28;20039;-50
2021/05/25 07:35:03;;;;;;;10.23;2.55;;;;;;;11.06;91.23;100975.34;5110942;28;20055;-51
2021/05/25 07:37:30;;;;;;;7.55;2.10;;;;;;;11.09;91.20;100977.56;5111724;28;20092;-51
2021/05/25 07:39:59;;;;;;;8.30;1.90;;;;;;;11.11;91.08;100980.03;5111151;28;20055;-49
2021/05/25 07:42:27;;;;;;;11.13;1.50;;;;;;;11.12;91.42;100981.72;5111718;28;20055;-52
2021/05/25 07:44:54;;;;;;;10.85;1.65;;;;;;;11.10;91.25;100979.22;5109876;28;20051;-52
2021/05/25 07:47:27;;;;;;;9.52;1.50;;;;;;;11.16;91.58;100982.78;5111532;28;20047;-49
2021/05/25 07:49:55;;;;;;;10.10;1.88;;;;;;;11.29;92.08;100991.25;5111528;28;20048;-53
2021/05/25 07:52:23;;;;;;;9.27;1.67;;;;;;;11.50;92.03;100988.97;5110971;28;20040;-50
2021/05/25 07:54:51;;;;;;;13.02;1.88;;;;;;;11.67;91.78;100999.63;5111066;28;20101;-52
2021/05/25 07:57:19;;;;;;;12.75;2.00;;;;;;;11.82;91.72;100992.97;5110015;28;20656;-49
2021/05/25 07:59:46;;;;;;;7.43;1.45;;;;;;;11.89;90.82;100999.03;5110650;28;20100;-49
2021/05/25 08:02:13;;;;;;;11.25;2.00;;;;;;;11.98;90.57;101000.84;5111529;28;20484;-50
2021/05/25 08:04:41;;;;;;;9.80;1.80;;;;;;;12.04;90.27;101002.38;5111118;28;20059;-50
2021/05/25 08:07:08;;;;;;;9.18;1.85;;;;;;;12.05;89.44;101001.25;5110868;28;20044;-48
2021/05/25 08:09:36;;;;;;;11.55;2.03;;;;;;;12.13;89.75;101012.91;5111276;28;20047;-49
2021/05/25 08:12:03;;;;;;;10.52;1.52;;;;;;;12.16;89.63;101009.50;5111479;28;20047;-48
2021/05/25 08:14:32;;;;;;;11.18;1.98;;;;;;;12.18;89.20;101010.84;5110158;28;20043;-50
2021/05/25 08:17:06;;;;;;;9.80;1.85;;;;;;;12.32;89.70;101010.88;5111357;28;20052;-49
2021/05/25 08:19:35;;;;;;;11.35;2.22;;;;;;;12.49;89.82;101016.72;5110988;28;20523;-47
2021/05/25 08:22:02;;;;;;;12.73;1.90;;;;;;;12.70;89.67;101015.19;5110689;28;20117;-47
2021/05/25 08:24:43;;;;;;;9.68;1.38;;;;;;;12.95;89.30;101018.63;5111173;28;20126;-48
2021/05/25 08:27:10;;;;;;;10.32;1.58;;;;;;;13.09;88.25;101019.44;5110921;28;20062;-47
2021/05/25 08:30:00;;;;;;;12.10;1.60;;;;;;;13.03;87.55;101027.13;5111005;28;20046;-49
2021/05/25 08:32:27;;;;;;;10.55;1.52;;;;;;;13.10;87.94;101026.72;5100226;28;20079;-48
2021/05/25 08:34:55;;;;;;;9.65;1.77;;;;;;;13.17;87.65;101029.97;5110313;28;20040;-47
2021/05/25 08:37:22;;;;;;;8.07;1.30;;;;;;;13.17;87.23;101032.75;5110949;28;20043;-48
2021/05/25 08:39:50;;;;;;;9.57;1.60;;;;;;;13.29;87.60;101035.84;5111090;28;20043;-48
2021/05/25 08:42:31;;;;;;;13.18;1.70;;;;;;;13.34;87.08;101043.34;5108985;28;20062;-47
2021/05/25 08:45:00;;;;;;;9.25;1.50;;;;;;;13.30;86.24;101042.28;5110341;28;20493;-48
2021/05/25 08:47:30;;;;;;;9.02;1.75;;;;;;;13.31;86.41;101055.16;5114918;28;20044;-50
2021/05/25 08:49:58;;;;;;;7.25;1.50;;;;;;;13.35;86.56;101054.22;5114312;28;20500;-47
2021/05/25 08:52:26;;;;;;;10.38;1.90;;;;;;;13.40;85.56;101053.28;5114770;28;20042;-49
2021/05/25 08:54:53;;;;;;;7.25;1.55;;;;;;;13.59;86.12;101056.75;5114749;28;20059;-48
2021/05/25 08:57:21;;;;;;;8.48;1.45;;;;;;;13.72;84.87;101064.34;5114043;28;20439;-49
2021/05/25 08:59:49;;;;;;;11.80;1.80;;;;;;;13.80;84.40;101062.75;5114584;28;20048;-50
2021/05/25 09:02:17;;;;;;;12.48;1.63;;;;;;;13.87;83.38;101057.53;5114071;28;20097;-47
2021/05/25 09:04:58;;;;;;;8.95;1.63;;;;;;;13.99;83.01;101066.22;5114565;28;20051;-47
2021/05/25 09:07:40;;;;;;;10.05;1.65;;;;;;;14.19;83.10;101066.91;5114501;28;20044;-46
2021/05/25 09:10:09;;;;;;;;;;;;;;;14.22;80.61;101063.41;5103875;28;20396;-48
2021/05/25 09:12:40;;;;;;;7.45;1.40;;;;;;;14.42;81.96;101072.19;5114257;28;19973;-48
2021/05/25 09:15:09;;;;;;;7.47;1.88;;;;;;;14.63;81.05;101085.72;5114262;28;20048;-46
2021/05/25 09:17:38;;;;;;;12.18;2.28;;;;;;;14.76;80.30;101082.84;5113790;28;20047;-47
2021/05/25 09:20:09;;;;;;;10.00;1.70;;;;;;;14.86;79.32;101086.50;5114804;28;20071;-46
2021/05/25 09:22:38;;;;;;;5.10;1.10;;;;;;;14.98;78.94;101083.94;5114308;28;20043;-46
2021/05/25 09:25:13;;;;;;;5.47;1.10;;;;;;;15.05;77.90;101081.47;5113383;28;20130;-51
2021/05/25 09:27:43;;;;;;;5.40;1.20;;;;;;;15.24;77.77;101084.84;5106051;28;20105;-47
2021/05/25 09:30:12;;;;;;;4.75;1.10;;;;;;;15.48;76.92;101090.06;5114047;28;20400;-48
2021/05/25 09:32:45;;;;;;;3.95;0.93;;;;;;;15.66;76.36;101088.16;5113181;28;20104;-47
2021/05/25 09:35:15;;;;;;;4.32;0.90;;;;;;;15.70;75.38;101084.38;5113771;28;20113;-52
2021/05/25 09:37:44;;;;;;;5.57;1.10;;;;;;;15.82;75.04;101089.34;5113103;28;20109;-55
2021/05/25 09:40:12;;;;;;;6.45;0.98;;;;;;;15.95;74.44;101088.38;5113820;28;20048;-53
2021/05/25 09:42:39;;;;;;;3.47;1.08;;;;;;;16.06;73.91;101089.69;5113609;28;20052;-49
2021/05/25 09:45:10;;;;;;;4.95;1.20;;;;;;;16.15;73.38;101096.16;5113643;28;20047;-51
2021/05/25 09:47:53;;;;;;;6.53;1.30;;;;;;;16.07;72.44;101093.34;5113426;28;20130;-48
2021/05/25 09:50:23;;;;;;;6.13;1.20;;;;;;;16.14;71.86;101097.31;5113622;28;20528;-52
2021/05/25 09:53:01;;;;;;;7.95;1.70;;;;;;;16.35;71.98;101102.28;5112126;28;20035;-55
2021/05/25 09:55:30;;;;;;;7.47;1.20;;;;;;;16.45;71.17;101102.75;5113666;28;20067;-50
2021/05/25 09:57:58;;;;;;;5.57;1.35;;;;;;;16.65;70.41;101108.91;5112260;28;20592;-52
2021/05/25 10:00:29;;;;;;;8.55;1.92;;;;;;;16.64;69.41;101108.06;5113122;28;20097;-48
2021/05/25 10:03:10;;;;;;;7.93;2.00;;;;;;;16.59;69.67;101108.22;5113262;28;20044;-57
2021/05/25 10:05:38;;;;;;;6.85;1.50;;;;;;;16.65;70.11;101109.72;5102573;28;20060;-50
2021/05/25 10:08:06;;;;;;;7.50;2.22;;;;;;;16.86;69.15;101113.50;5113040;28;20043;-52
2021/05/25 10:10:35;;;;;;;9.00;1.70;;;;;;;16.72;67.29;101118.50;5113350;28;20063;-53
2021/05/25 10:13:03;;;;;;;7.63;1.30;;;;;;;16.53;67.54;101118.84;5112210;28;20058;-53
2021/05/25 10:15:31;;;;;;;4.97;1.25;;;;;;;16.43;67.39;101124.81;5113369;28;20036;-51
2021/05/25 10:18:27;;;;;;;5.78;1.15;;;;;;;16.24;67.29;101137.56;5112821;28;20496;-51
2021/05/25 10:20:56;;;;;;;7.43;1.40;;;;;;;15.78;67.14;101125.78;5111675;28;20074;-48
2021/05/25 10:23:24;;;;;;;5.10;0.93;;;;;;;15.44;67.88;101134.88;5112709;28;20119;-50
2021/05/25 10:25:53;;;;;;;7.22;1.55;;;;;;;15.15;68.52;101140.22;5113201;28;20064;-46
2021/05/25 10:28:21;;;;;;;6.05;1.02;;;;;;;14.90;69.21;101147.38;5112217;28;20048;-50
2021/05/25 10:30:50;;;;;;;9.10;1.30;;;;;;;14.66;69.62;101146.88;5111945;28;20043;-49
2021/05/25 10:33:37;;;;;;;7.95;1.17;;;;;;;14.50;69.15;101151.22;5112356;28;20656;-49
2021/05/25 10:36:08;;;;;;;6.00;1.10;;;;;;;14.39;69.89;101153.38;5111805;28;20108;-50
2021/05/25 10:38:54;;;;;;;4.65;1.20;;;;;;;14.37;69.65;101145.31;5112815;28;20044;-50
2021/05/25 10:41:28;;;;;;;6.32;1.30;;;;;;;14.34;69.94;101157.16;5109185;28;20048;-50
2021/05/25 10:43:56;;;;;;;8.45;1.55;;;;;;;14.25;69.77;101159.06;5112278;28;20130;-56
2021/05/25 10:46:26;;;;;;;6.47;1.75;;;;;;;14.10;69.87;101162.22;5112377;28;20049;-52
2021/05/25 10:49:12;;;;;;;6.28;1.55;;;;;;;13.89;69.77;101166.63;5111837;28;20056;-54
2021/05/25 10:52:16;;;;;;;8.95;1.48;;;;;;;13.74;70.76;101160.22;5109091;28;20052;-49
2021/05/25 10:54:58;;;;;;;8.98;1.80;;;;;;;13.77;71.05;101165.22;5111140;28;20503;-50
2021/05/25 10:57:37;;;;;;;6.82;1.50;;;;;;;13.88;71.52;101171.41;5102849;28;20496;-51
2021/05/25 11:00:09;;;;;;;7.75;1.42;;;;;;;13.93;71.09;101167.66;5108651;28;20063;-51
2021/05/25 11:02:48;;;;;;;8.65;1.52;;;;;;;13.94;71.13;101175.78;5111832;28;20050;-50
2021/05/25 11:05:41;;;;;;;10.07;2.45;;;;;;;13.88;70.75;101181.81;5110486;28;20051;-49
2021/05/25 11:08:48;;;;;;;9.48;2.45;;;;;;;14.04;71.32;101174.69;5111951;28;20539;-48
2021/05/25 11:11:29;;;;;;;10.38;2.60;;;;;;;14.11;70.38;101178.75;5104559;28;20043;-52
2021/05/25 11:13:57;;;;;;;10.48;2.05;;;;;;;14.21;71.15;101172.06;5111711;28;20048;-51
2021/05/25 11:16:36;;;;;;;9.57;2.38;;;;;;;14.33;70.60;101188.38;5111100;28;20051;-48
2021/05/25 11:19:21;;;;;;;8.00;2.05;;;;;;;14.34;70.78;101184.41;5098265;28;20040;-49
2021/05/25 11:22:06;;;;;;;11.23;2.70;;;;;;;14.50;71.28;101179.28;5111755;28;20052;-50
2021/05/25 11:24:36;;;;;;;8.85;1.85;;;;;;;14.73;70.40;101186.59;5100458;28;20055;-51
2021/05/25 11:27:07;;;;;;;6.65;1.88;;;;;;;14.90;69.53;101192.31;5111670;28;20119;-49
2021/05/25 11:29:36;;;;;;;8.35;2.20;;;;;;;15.15;69.22;101199.25;5111377;28;20389;-51
2021/05/25 11:32:06;;;;;;;10.90;1.83;;;;;;;15.20;68.36;101198.28;5111081;28;20051;-53
2021/05/25 11:34:34;;;;;;;9.13;2.30;;;;;;;15.16;68.41;101198.94;5111274;28;20039;-53
2021/05/25 11:37:03;;;;;;;8.98;2.10;;;;;;;15.02;68.08;101202.97;5110782;28;20504;-52
2021/05/25 11:39:35;;;;;;;8.00;1.95;;;;;;;14.76;68.29;101200.81;5111413;28;20057;-53
2021/05/25 11:42:06;;;;;;;8.07;2.00;;;;;;;14.64;68.66;101208.16;5111388;28;20043;-53
2021/05/25 11:44:36;;;;;;;7.82;1.98;;;;;;;14.57;69.38;101211.41;5110545;28;20498;-49